Time;durP1;ratioP1;P1;durP2;ratioP2;P2;SDS_P1;SDS_P2;PMS_P1;PMS_P2;Temp;Humidity;BMP_temperature;BMP_pressure;BME280_temperature;BME280_humidity;BME280_pressure;Samples;Min_cycle;Max_cycle;Signal;HPM_P1;HPM_P2
2023/07/29 00:00:43;;;;;;;8.77;4.33;;;18.60;99.90;;;;;;4957660;28;20589;-81
2023/07/29 00:03:10;;;;;;;7.13;3.40;;;18.50;99.90;;;;;;4945332;28;20701;-81
2023/07/29 00:05:37;;;;;;;6.00;3.00;;;18.50;99.90;;;;;;4970905;28;20267;-82
2023/07/29 00:08:03;;;;;;;4.67;2.73;;;18.60;99.90;;;;;;4960209;28;20222;-81
2023/07/29 00:10:32;;;;;;;5.73;3.90;;;18.60;99.90;;;;;;4950269;28;20370;-81
2023/07/29 00:12:58;;;;;;;6.70;3.30;;;18.60;99.90;;;;;;4965467;28;20209;-80
2023/07/29 00:15:24;;;;;;;11.97;4.17;;;18.60;99.90;;;;;;4964036;28;20207;-80
2023/07/29 00:17:49;;;;;;;8.77;2.80;;;18.50;99.90;;;;;;4959089;28;20197;-81
2023/07/29 00:20:16;;;;;;;8.57;4.13;;;18.50;99.90;;;;;;4964782;28;20237;-81
2023/07/29 00:22:42;;;;;;;7.60;3.83;;;18.50;99.90;;;;;;4961824;28;20223;-81
2023/07/29 00:25:08;;;;;;;5.67;3.47;;;18.50;99.90;;;;;;4946492;28;20652;-81
2023/07/29 00:27:33;;;;;;;6.83;3.10;;;18.50;99.90;;;;;;4962100;28;20225;-80
2023/07/29 00:29:59;;;;;;;5.53;3.30;;;18.50;99.90;;;;;;4966090;28;20439;-81
2023/07/29 00:32:27;;;;;;;4.57;2.97;;;18.40;99.90;;;;;;4948156;28;20590;-81
2023/07/29 00:34:52;;;;;;;4.70;3.43;;;18.50;99.90;;;;;;4963742;28;21069;-82
2023/07/29 00:37:18;;;;;;;4.57;3.50;;;18.50;99.90;;;;;;4963328;28;20220;-81
2023/07/29 00:39:44;;;;;;;7.43;4.13;;;18.50;99.90;;;;;;4961458;28;20345;-81
2023/07/29 00:42:09;;;;;;;10.33;4.20;;;18.50;99.90;;;;;;4961937;28;20193;-80
2023/07/29 00:44:35;;;;;;;9.60;3.13;;;18.50;99.90;;;;;;4965526;28;20636;-81
2023/07/29 00:47:03;;;;;;;4.27;3.17;;;18.50;99.90;;;;;;4961945;28;20221;-80
2023/07/29 00:49:29;;;;;;;7.00;3.53;;;18.50;99.90;;;;;;4964417;28;20694;-82
2023/07/29 00:51:55;;;;;;;9.27;3.50;;;18.50;99.90;;;;;;4961277;28;20231;-80
2023/07/29 00:54:21;;;;;;;7.17;3.93;;;18.50;99.90;;;;;;4963604;28;20247;-81
2023/07/29 00:56:47;;;;;;;7.57;3.60;;;18.50;99.90;;;;;;4961224;28;20200;-81
2023/07/29 00:59:13;;;;;;;8.70;2.67;;;18.50;99.90;;;;;;4964184;28;20266;-82
2023/07/29 01:01:39;;;;;;;3.77;3.00;;;18.50;99.90;;;;;;4943664;28;20232;-80
2023/07/29 01:04:04;;;;;;;10.60;3.83;;;18.50;99.90;;;;;;4946656;28;20224;-81
2023/07/29 01:06:50;;;;;;;4.87;2.87;;;18.50;99.90;;;;;;4960449;28;20230;-80
2023/07/29 01:09:32;;;;;;;13.57;3.47;;;18.50;99.90;;;;;;4947576;28;20444;-81
2023/07/29 01:12:22;;;;;;;8.20;2.90;;;18.50;99.90;;;;;;4962313;28;20804;-81
2023/07/29 01:14:57;;;;;;;3.40;2.07;;;18.50;99.90;;;;;;4963007;28;20596;-80
2023/07/29 01:17:27;;;;;;;3.77;2.60;;;18.50;99.90;;;;;;4963635;28;20666;-81
2023/07/29 01:20:17;;;;;;;6.13;3.20;;;18.50;99.90;;;;;;4961453;28;20235;-81
2023/07/29 01:22:43;;;;;;;4.90;2.70;;;18.50;99.90;;;;;;4948307;28;20225;-81
2023/07/29 01:25:09;;;;;;;5.27;2.03;;;18.50;99.90;;;;;;4963998;28;20622;-81
2023/07/29 01:27:35;;;;;;;7.17;2.97;;;18.50;99.90;;;;;;4956502;28;20224;-81
2023/07/29 01:30:02;;;;;;;4.20;2.40;;;18.50;99.90;;;;;;4943303;28;20260;-82
2023/07/29 01:32:39;;;;;;;4.80;2.77;;;18.50;99.90;;;;;;4961281;28;20339;-81
2023/07/29 01:35:24;;;;;;;2.83;2.47;;;18.50;99.90;;;;;;4957623;28;20237;-82
2023/07/29 01:37:56;;;;;;;6.07;3.40;;;18.50;99.90;;;;;;4966588;28;20687;-80
2023/07/29 01:40:24;;;;;;;6.30;2.93;;;18.50;99.90;;;;;;4944111;28;20244;-82
2023/07/29 01:42:51;;;;;;;3.63;2.50;;;18.40;99.90;;;;;;4958918;28;20216;-81
2023/07/29 01:45:16;;;;;;;7.23;3.53;;;18.40;99.90;;;;;;4962893;28;20193;-80
2023/07/29 01:47:42;;;;;;;4.27;2.83;;;18.40;99.90;;;;;;4960792;28;20557;-81
2023/07/29 01:50:09;;;;;;;4.03;2.80;;;18.40;99.90;;;;;;4938385;28;20229;-80
2023/07/29 01:52:35;;;;;;;7.83;4.33;;;18.40;99.90;;;;;;4960184;28;20312;-81
2023/07/29 01:55:01;;;;;;;6.47;3.10;;;18.40;99.90;;;;;;4960251;28;20268;-80
2023/07/29 01:57:27;;;;;;;7.83;3.57;;;18.40;99.90;;;;;;4961692;28;20185;-80
2023/07/29 01:59:53;;;;;;;5.03;3.10;;;18.40;99.90;;;;;;4960683;28;20193;-80
2023/07/29 02:02:18;;;;;;;5.80;2.83;;;18.40;99.90;;;;;;4962002;28;20932;-80
2023/07/29 02:04:45;;;;;;;5.27;3.30;;;18.40;99.90;;;;;;4944499;28;20228;-80
2023/07/29 02:07:10;;;;;;;4.43;2.80;;;18.40;99.90;;;;;;4961737;28;20220;-81
2023/07/29 02:09:36;;;;;;;5.33;2.90;;;18.40;99.90;;;;;;4959666;28;20234;-81
2023/07/29 02:12:02;;;;;;;7.20;3.13;;;18.40;99.90;;;;;;4946714;28;20272;-80
2023/07/29 02:14:28;;;;;;;6.13;4.50;;;18.50;99.90;;;;;;4944340;28;20708;-80
2023/07/29 02:16:54;;;;;;;6.07;4.00;;;18.50;99.90;;;;;;4959789;28;20847;-81
2023/07/29 02:19:19;;;;;;;5.23;3.03;;;18.50;99.90;;;;;;4959837;28;20302;-81
2023/07/29 02:21:45;;;;;;;11.83;4.00;;;18.50;99.90;;;;;;4950164;28;20367;-82
2023/07/29 02:24:11;;;;;;;4.80;2.97;;;18.40;99.90;;;;;;4960731;28;20197;-80
2023/07/29 02:26:36;;;;;;;6.63;3.57;;;18.40;99.90;;;;;;4961394;28;20639;-82
2023/07/29 02:29:02;;;;;;;5.47;4.27;;;18.40;99.90;;;;;;4960189;28;20239;-80
2023/07/29 02:31:28;;;;;;;6.67;3.97;;;18.50;99.90;;;;;;4959270;28;20304;-81
2023/07/29 02:33:54;;;;;;;6.83;3.33;;;18.50;99.90;;;;;;4960432;28;20256;-81
2023/07/29 02:36:20;;;;;;;4.87;2.70;;;18.50;99.90;;;;;;4959252;28;20192;-81
2023/07/29 02:38:45;;;;;;;4.67;2.50;;;18.50;99.90;;;;;;4945008;28;20184;-81
2023/07/29 02:41:15;;;;;;;6.03;3.20;;;18.40;99.90;;;;;;4949189;28;20212;-83
2023/07/29 02:43:42;;;;;;;5.17;2.90;;;18.40;99.90;;;;;;4959588;28;20236;-81
2023/07/29 02:46:08;;;;;;;4.67;2.27;;;18.40;99.90;;;;;;4959566;28;20279;-81
2023/07/29 02:48:34;;;;;;;6.83;2.93;;;18.40;99.90;;;;;;4962250;28;20810;-82
2023/07/29 02:51:00;;;;;;;8.07;2.97;;;18.40;99.90;;;;;;4959431;28;20228;-81
2023/07/29 02:53:26;;;;;;;5.43;2.37;;;18.40;99.90;;;;;;4959722;28;20231;-81
2023/07/29 02:55:51;;;;;;;5.33;2.97;;;18.40;99.90;;;;;;4944785;28;20252;-80
2023/07/29 02:58:17;;;;;;;8.10;2.60;;;18.40;99.90;;;;;;4959149;28;21099;-80
2023/07/29 03:00:43;;;;;;;10.77;2.67;;;18.30;99.90;;;;;;4959276;28;20220;-81
2023/07/29 03:03:09;;;;;;;5.53;2.80;;;18.30;99.90;;;;;;4943206;28;20194;-82
2023/07/29 03:05:35;;;;;;;5.63;2.90;;;18.30;99.90;;;;;;4961688;28;20229;-82
2023/07/29 03:08:01;;;;;;;7.17;3.17;;;18.30;99.90;;;;;;4963904;28;20252;-83
2023/07/29 03:10:27;;;;;;;7.27;3.30;;;18.30;99.90;;;;;;4960456;28;20310;-81
2023/07/29 03:12:56;;;;;;;5.50;2.43;;;18.30;99.90;;;;;;4958742;28;21727;-83
2023/07/29 03:15:25;;;;;;;6.07;3.33;;;18.30;99.90;;;;;;4960362;28;21214;-80
2023/07/29 03:17:51;;;;;;;7.13;2.60;;;18.30;99.90;;;;;;4966739;28;20675;-81
2023/07/29 03:20:19;;;;;;;3.97;2.27;;;18.30;99.90;;;;;;4964579;28;20740;-82
2023/07/29 03:22:46;;;;;;;4.40;3.53;;;18.30;99.90;;;;;;4965211;28;20228;-81
2023/07/29 03:25:11;;;;;;;4.07;2.73;;;18.30;99.90;;;;;;4946783;28;20224;-81
2023/07/29 03:27:37;;;;;;;6.97;3.27;;;18.30;99.90;;;;;;4949242;28;20781;-80
2023/07/29 03:30:07;;;;;;;3.33;2.57;;;18.30;99.90;;;;;;4949602;28;20195;-81
2023/07/29 03:32:33;;;;;;;5.83;2.17;;;18.30;99.90;;;;;;4963731;28;20220;-81
2023/07/29 03:34:59;;;;;;;5.90;2.30;;;18.20;99.90;;;;;;4963255;28;20644;-80
2023/07/29 03:37:24;;;;;;;4.00;2.57;;;18.20;99.90;;;;;;4963156;28;20216;-82
2023/07/29 03:39:51;;;;;;;8.30;2.83;;;18.10;99.90;;;;;;4962591;28;20356;-81
2023/07/29 03:42:18;;;;;;;4.40;2.00;;;18.10;99.90;;;;;;4963803;28;20201;-83
2023/07/29 03:44:43;;;;;;;3.70;2.20;;;18.00;99.90;;;;;;4946536;28;20208;-81
2023/07/29 03:47:09;;;;;;;3.87;2.77;;;18.00;99.90;;;;;;4963313;28;20217;-81
2023/07/29 03:49:35;;;;;;;2.97;1.97;;;17.90;99.90;;;;;;4963721;28;20228;-81
2023/07/29 03:52:00;;;;;;;5.30;2.67;;;17.90;99.90;;;;;;4962855;28;20348;-81
2023/07/29 03:54:26;;;;;;;4.37;2.50;;;17.90;99.90;;;;;;4962729;28;20208;-81
2023/07/29 03:56:52;;;;;;;4.13;2.53;;;17.90;99.90;;;;;;4963583;28;20199;-82
2023/07/29 03:59:18;;;;;;;7.13;3.07;;;17.80;99.90;;;;;;4965227;28;20307;-81
2023/07/29 04:01:43;;;;;;;3.73;2.13;;;17.80;99.90;;;;;;4962061;28;20570;-82
2023/07/29 04:04:09;;;;;;;4.20;2.00;;;17.80;99.90;;;;;;4963009;28;20710;-81
2023/07/29 04:06:35;;;;;;;4.77;2.43;;;17.70;99.90;;;;;;4961696;28;20235;-81
2023/07/29 04:09:01;;;;;;;3.40;2.03;;;17.70;99.90;;;;;;4946881;28;20212;-81
2023/07/29 04:11:26;;;;;;;4.07;1.60;;;17.70;99.90;;;;;;4963708;28;20267;-81
2023/07/29 04:13:52;;;;;;;2.70;1.87;;;17.70;99.90;;;;;;4961585;28;20247;-81
2023/07/29 04:16:18;;;;;;;1.83;1.73;;;17.70;99.90;;;;;;4955467;28;20232;-81
2023/07/29 04:18:44;;;;;;;3.87;1.60;;;17.70;99.90;;;;;;4962354;28;20232;-81
2023/07/29 04:21:09;;;;;;;3.33;2.10;;;17.70;99.90;;;;;;4946262;28;20572;-79
2023/07/29 04:23:35;;;;;;;7.43;2.73;;;17.70;99.90;;;;;;4963374;28;20209;-80
2023/07/29 04:26:01;;;;;;;2.87;1.57;;;17.70;99.90;;;;;;4961960;28;20232;-80
2023/07/29 04:28:26;;;;;;;4.23;2.00;;;17.70;99.90;;;;;;4947319;28;20224;-80
2023/07/29 04:30:52;;;;;;;7.10;1.80;;;17.70;99.90;;;;;;4946217;28;21117;-81
2023/07/29 04:33:18;;;;;;;4.07;1.93;;;17.70;99.90;;;;;;4960786;28;20767;-80
2023/07/29 04:35:44;;;;;;;1.27;1.17;;;17.70;99.90;;;;;;4964797;28;20196;-80
2023/07/29 04:38:09;;;;;;;5.03;2.00;;;17.70;99.90;;;;;;4944570;28;20709;-81
2023/07/29 04:40:35;;;;;;;3.10;1.80;;;17.70;99.90;;;;;;4948655;28;20339;-79
2023/07/29 04:43:01;;;;;;;2.40;2.20;;;17.70;99.90;;;;;;4945061;28;20259;-81
2023/07/29 04:45:30;;;;;;;3.97;2.20;;;17.70;99.90;;;;;;4963843;28;20251;-80
2023/07/29 04:47:56;;;;;;;6.77;2.27;;;17.70;99.90;;;;;;4961263;28;20185;-81
2023/07/29 04:50:22;;;;;;;4.33;2.50;;;17.80;99.90;;;;;;4945513;28;20225;-81
2023/07/29 04:52:52;;;;;;;1.73;1.37;;;17.70;99.90;;;;;;4964402;28;20600;-81
2023/07/29 04:55:18;;;;;;;2.80;1.90;;;17.80;99.90;;;;;;4966064;28;20319;-81
2023/07/29 04:57:46;;;;;;;6.50;1.97;;;17.90;99.90;;;;;;4961846;28;20221;-81
2023/07/29 05:00:12;;;;;;;2.10;1.53;;;17.90;99.90;;;;;;4963265;28;20220;-81
2023/07/29 05:02:38;;;;;;;4.97;1.40;;;17.90;99.90;;;;;;4948261;28;20276;-82
2023/07/29 05:05:04;;;;;;;3.53;1.70;;;18.00;99.90;;;;;;4960205;28;20217;-81
2023/07/29 05:07:29;;;;;;;1.50;1.40;;;17.90;99.90;;;;;;4962223;28;20216;-82
2023/07/29 05:09:55;;;;;;;16.33;2.93;;;18.00;99.90;;;;;;4962835;28;20240;-81
2023/07/29 05:12:21;;;;;;;4.80;2.17;;;18.10;99.90;;;;;;4961778;28;20622;-82
2023/07/29 05:14:47;;;;;;;3.20;2.07;;;18.10;99.90;;;;;;4961106;28;20201;-82
2023/07/29 05:17:13;;;;;;;2.30;2.10;;;18.10;99.90;;;;;;4944799;28;20242;-81
2023/07/29 05:19:39;;;;;;;5.07;2.27;;;18.10;99.90;;;;;;4964147;28;20228;-81
2023/07/29 05:22:05;;;;;;;3.50;2.53;;;18.20;99.90;;;;;;4960877;28;20865;-81
2023/07/29 05:24:31;;;;;;;6.13;2.03;;;18.20;99.90;;;;;;4961419;28;20595;-81
2023/07/29 05:26:56;;;;;;;5.07;2.50;;;18.20;99.90;;;;;;4947728;28;20188;-81
2023/07/29 05:29:22;;;;;;;8.97;2.47;;;18.20;99.90;;;;;;4961348;28;20213;-81
2023/07/29 05:31:48;;;;;;;2.93;1.80;;;18.30;99.90;;;;;;4959816;28;20625;-81
2023/07/29 05:34:13;;;;;;;3.43;1.20;;;18.30;99.90;;;;;;4948973;28;20228;-81
2023/07/29 05:36:39;;;;;;;2.87;1.50;;;18.40;99.90;;;;;;4961225;28;20228;-80
2023/07/29 05:39:05;;;;;;;4.57;2.03;;;18.40;99.90;;;;;;4960167;28;20231;-81
2023/07/29 05:41:31;;;;;;;3.37;2.30;;;18.40;99.90;;;;;;4961291;28;20822;-81
2023/07/29 05:43:57;;;;;;;3.47;1.50;;;18.40;99.90;;;;;;4962145;28;20225;-81
2023/07/29 05:46:23;;;;;;;5.00;1.33;;;18.30;99.90;;;;;;4960596;28;21003;-81
2023/07/29 05:48:48;;;;;;;3.37;1.80;;;18.30;99.90;;;;;;4960242;28;20251;-82
2023/07/29 05:51:14;;;;;;;5.03;2.30;;;18.30;99.90;;;;;;4961897;28;20649;-82
2023/07/29 05:53:40;;;;;;;4.67;1.80;;;18.40;99.90;;;;;;4963030;28;20643;-82
2023/07/29 05:56:05;;;;;;;5.57;2.40;;;18.50;99.90;;;;;;4944982;28;21000;-82
2023/07/29 05:58:31;;;;;;;2.47;1.60;;;18.60;99.90;;;;;;4959288;28;20231;-82
2023/07/29 06:00:58;;;;;;;5.17;1.67;;;18.70;99.90;;;;;;4964909;28;20340;-84
2023/07/29 06:03:26;;;;;;;5.73;2.67;;;18.80;99.90;;;;;;4950387;28;20197;-81
2023/07/29 06:05:52;;;;;;;4.63;2.10;;;19.00;99.90;;;;;;4945398;28;20192;-81
2023/07/29 06:08:18;;;;;;;6.57;2.17;;;19.40;99.90;;;;;;4963690;28;20235;-82
2023/07/29 06:10:44;;;;;;;3.93;1.80;;;19.70;99.90;;;;;;4965649;28;20223;-82
2023/07/29 06:13:10;;;;;;;4.17;2.37;;;19.70;99.90;;;;;;4959895;28;20229;-81
2023/07/29 06:15:38;;;;;;;6.10;2.23;;;19.70;99.90;;;;;;4960682;28;20234;-81
2023/07/29 06:18:04;;;;;;;3.57;1.87;;;19.90;99.90;;;;;;4965823;28;20287;-82
2023/07/29 06:20:30;;;;;;;4.17;2.07;;;20.00;99.90;;;;;;4949179;28;20739;-83
2023/07/29 06:22:56;;;;;;;5.30;2.17;;;20.20;99.90;;;;;;4965808;28;20224;-84
2023/07/29 06:25:22;;;;;;;7.23;2.63;;;20.60;99.90;;;;;;4961854;28;20239;-83
2023/07/29 06:27:48;;;;;;;4.90;2.13;;;21.50;99.90;;;;;;4959536;28;20224;-84
2023/07/29 06:30:13;;;;;;;3.83;1.87;;;22.70;99.90;;;;;;4961538;28;20189;-81
2023/07/29 06:32:39;;;;;;;4.17;2.20;;;24.10;99.90;;;;;;4944137;28;20620;-82
2023/07/29 06:35:05;;;;;;;6.23;2.03;;;23.50;99.90;;;;;;4960886;28;20272;-81
2023/07/29 06:37:33;;;;;;;3.03;1.63;;;23.20;99.90;;;;;;4947209;28;20240;-81
2023/07/29 06:39:58;;;;;;;3.40;1.70;;;22.90;99.90;;;;;;4942580;28;20239;-83
2023/07/29 06:42:24;;;;;;;2.57;1.87;;;22.90;99.90;;;;;;4964854;28;20775;-81
2023/07/29 06:44:50;;;;;;;2.83;1.93;;;23.30;99.90;;;;;;4962726;28;20223;-83
2023/07/29 06:47:18;;;;;;;5.20;1.55;;;23.30;99.90;;;;;;4959690;28;20226;-81
2023/07/29 06:49:45;;;;;;;3.93;2.33;;;22.60;99.90;;;;;;4960070;28;20220;-82
2023/07/29 06:52:11;;;;;;;4.57;1.73;;;22.20;99.90;;;;;;4962186;28;20252;-81
2023/07/29 06:54:37;;;;;;;6.53;1.73;;;21.90;99.90;;;;;;4959805;28;20339;-82
2023/07/29 06:57:03;;;;;;;2.77;1.40;;;21.30;99.90;;;;;;4946172;28;20184;-80
2023/07/29 06:59:28;;;;;;;3.47;1.70;;;21.00;99.90;;;;;;4959825;28;20228;-83
2023/07/29 07:01:54;;;;;;;3.83;1.57;;;20.90;99.90;;;;;;4960056;28;20708;-84
2023/07/29 07:04:20;;;;;;;4.53;1.80;;;20.80;99.90;;;;;;4963559;28;21062;-82
2023/07/29 07:06:46;;;;;;;6.20;1.60;;;20.80;99.90;;;;;;4944015;28;20709;-82
2023/07/29 07:09:11;;;;;;;2.00;1.37;;;20.60;99.90;;;;;;4961836;28;20193;-82
2023/07/29 07:11:37;;;;;;;4.10;1.80;;;20.60;99.90;;;;;;4943598;28;20200;-84
2023/07/29 07:14:03;;;;;;;2.30;1.90;;;20.50;99.90;;;;;;4942771;28;20228;-83
2023/07/29 07:16:31;;;;;;;3.40;1.93;;;20.60;99.90;;;;;;4944195;28;20220;-82
2023/07/29 07:19:00;;;;;;;4.67;1.80;;;20.60;99.90;;;;;;4943370;28;20573;-82
2023/07/29 07:21:26;;;;;;;4.37;2.00;;;20.70;99.90;;;;;;4945904;28;20235;-83
2023/07/29 07:23:52;;;;;;;3.63;1.87;;;21.10;99.90;;;;;;4961683;28;20984;-83
2023/07/29 07:26:17;;;;;;;4.03;1.90;;;21.50;99.90;;;;;;4957360;28;20722;-84
2023/07/29 07:28:43;;;;;;;4.57;1.77;;;22.30;99.90;;;;;;4947366;28;20217;-83
2023/07/29 07:31:09;;;;;;;3.07;1.80;;;24.50;99.90;;;;;;4961804;28;20245;-83
2023/07/29 07:33:35;;;;;;;3.78;1.85;;;25.30;99.90;;;;;;4942316;28;20244;-82
2023/07/29 07:36:00;;;;;;;2.22;1.45;;;24.90;99.90;;;;;;4943827;28;20236;-82
2023/07/29 07:38:26;;;;;;;5.38;1.63;;;24.00;99.90;;;;;;4962215;28;20248;-85
2023/07/29 07:40:54;;;;;;;5.40;1.90;;;23.50;99.90;;;;;;4966536;28;20229;-82
2023/07/29 07:43:20;;;;;;;6.63;1.30;;;23.30;99.90;;;;;;4963439;28;20220;-81
2023/07/29 07:45:46;;;;;;;4.53;1.27;;;23.30;99.90;;;;;;4966081;28;20257;-81
2023/07/29 07:48:16;;;;;;;7.07;1.77;;;22.80;99.90;;;;;;4960623;28;20208;-85
2023/07/29 07:50:42;;;;;;;3.60;1.30;;;22.20;99.90;;;;;;4965439;28;20937;-82
2023/07/29 07:53:08;;;;;;;2.33;1.05;;;22.00;99.90;;;;;;4943119;28;20311;-82
2023/07/29 07:55:34;;;;;;;3.45;0.90;;;21.90;99.90;;;;;;4947300;28;21145;-79
2023/07/29 07:57:59;;;;;;;1.58;1.05;;;21.80;99.90;;;;;;4942053;28;20220;-83
2023/07/29 08:00:25;;;;;;;1.40;1.13;;;21.90;99.90;;;;;;4962419;28;20565;-81
2023/07/29 08:02:51;;;;;;;6.03;1.85;;;21.90;99.90;;;;;;4964809;28;20397;-83
2023/07/29 08:05:18;;;;;;;3.25;1.10;;;22.90;99.90;;;;;;4951270;28;20232;-82
2023/07/29 08:07:43;;;;;;;3.58;1.33;;;24.00;99.90;;;;;;4967259;28;20242;-82
2023/07/29 08:10:12;;;;;;;2.30;1.70;;;25.60;99.90;;;;;;4963151;28;20219;-82
2023/07/29 08:12:37;;;;;;;2.28;1.10;;;26.90;99.90;;;;;;4961896;28;20658;-83
2023/07/29 08:15:04;;;;;;;2.03;1.08;;;26.70;99.90;;;;;;4946515;28;20204;-82
2023/07/29 08:17:29;;;;;;;3.40;1.02;;;25.80;99.90;;;;;;4970498;28;20232;-82
2023/07/29 08:19:55;;;;;;;1.38;0.95;;;24.30;99.90;;;;;;4956817;28;20216;-85
2023/07/29 08:22:21;;;;;;;1.42;1.00;;;25.10;99.90;;;;;;4952284;28;20315;-82
2023/07/29 08:24:47;;;;;;;4.22;1.00;;;26.60;99.90;;;;;;4963026;28;20685;-86
2023/07/29 08:27:12;;;;;;;1.15;0.95;;;25.60;99.90;;;;;;4962484;28;20192;-83
2023/07/29 08:29:39;;;;;;;1.75;1.20;;;24.80;99.90;;;;;;4949078;28;20247;-82
2023/07/29 08:32:08;;;;;;;3.55;1.08;;;23.80;99.90;;;;;;4946636;28;20223;-83
2023/07/29 08:34:33;;;;;;;1.35;1.00;;;23.20;99.90;;;;;;4945939;28;20788;-84
2023/07/29 08:37:04;;;;;;;1.77;0.82;;;23.60;99.90;;;;;;4961072;28;20232;-83
2023/07/29 08:39:32;;;;;;;1.33;0.90;;;23.70;99.90;;;;;;4964412;28;20747;-82
2023/07/29 08:42:04;;;;;;;2.15;1.13;;;23.60;99.90;;;;;;4946302;28;20968;-83
2023/07/29 08:44:40;;;;;;;2.03;1.40;;;22.80;99.90;;;;;;4963861;28;20236;-83
2023/07/29 08:47:06;;;;;;;1.15;1.08;;;22.90;99.90;;;;;;4964317;28;20223;-83
2023/07/29 08:49:32;;;;;;;4.60;1.17;;;23.50;99.90;;;;;;4935591;28;20263;-82
2023/07/29 08:51:59;;;;;;;1.70;1.08;;;23.50;99.90;;;;;;4965676;28;20244;-83
2023/07/29 08:54:27;;;;;;;2.03;1.30;;;23.30;99.90;;;;;;4961962;28;20208;-82
2023/07/29 08:56:53;;;;;;;1.63;1.20;;;22.90;99.90;;;;;;4946804;28;20732;-82
2023/07/29 08:59:19;;;;;;;1.75;1.10;;;22.90;99.90;;;;;;4961202;28;20724;-81
2023/07/29 09:01:47;;;;;;;3.15;0.93;;;23.10;99.90;;;;;;4962152;28;20693;-82
2023/07/29 09:04:13;;;;;;;1.40;1.10;;;23.40;99.90;;;;;;4961761;28;20343;-81
2023/07/29 09:06:39;;;;;;;7.22;1.40;;;23.40;99.90;;;;;;4945372;28;20309;-82
2023/07/29 09:09:07;;;;;;;1.65;1.02;;;23.30;99.90;;;;;;4964187;28;20185;-81
2023/07/29 09:11:33;;;;;;;3.75;1.00;;;23.00;99.90;;;;;;4960829;28;20244;-81
2023/07/29 09:13:59;;;;;;;2.13;0.98;;;22.50;99.90;;;;;;4959822;28;20225;-81
2023/07/29 09:16:25;;;;;;;3.47;1.30;;;22.30;99.90;;;;;;4963841;28;20678;-84
2023/07/29 09:18:52;;;;;;;7.15;1.50;;;22.50;99.90;;;;;;4963136;28;20247;-80
2023/07/29 09:21:28;;;;;;;3.83;1.48;;;22.30;99.90;;;;;;4967286;28;20315;-81
2023/07/29 09:23:54;;;;;;;1.83;1.08;;;22.50;99.90;;;;;;4930909;28;20189;-80
2023/07/29 09:26:27;;;;;;;3.70;1.05;;;22.60;99.90;;;;;;4946606;28;20663;-80
2023/07/29 09:28:57;;;;;;;4.05;0.98;;;22.60;99.90;;;;;;4963216;28;20224;-82
2023/07/29 09:31:25;;;;;;;1.95;1.02;;;22.50;99.90;;;;;;4965214;28;20367;-80
2023/07/29 09:34:05;;;;;;;2.90;1.00;;;22.90;99.90;;;;;;4962646;28;20244;-80
2023/07/29 09:36:32;;;;;;;2.17;1.00;;;22.70;99.90;;;;;;4954998;28;20311;-80
2023/07/29 09:38:58;;;;;;;1.08;0.68;;;22.70;99.90;;;;;;4932087;28;20177;-78
2023/07/29 09:41:30;;;;;;;0.95;0.88;;;22.60;99.90;;;;;;4963965;28;20216;-84
2023/07/29 09:43:58;;;;;;;1.85;1.23;;;22.60;99.90;;;;;;4944435;28;20227;-83
2023/07/29 09:46:26;;;;;;;1.98;1.02;;;23.20;99.90;;;;;;4962759;28;21130;-79
2023/07/29 09:48:57;;;;;;;2.92;0.93;;;23.20;99.90;;;;;;4947667;28;20998;-80
2023/07/29 09:51:23;;;;;;;1.10;0.93;;;22.80;99.90;;;;;;4963369;28;20451;-79
2023/07/29 09:53:54;;;;;;;1.80;1.10;;;22.90;99.90;;;;;;4966235;28;20204;-82
2023/07/29 09:56:26;;;;;;;1.52;1.33;;;23.70;99.90;;;;;;4950578;28;20609;-81
2023/07/29 09:58:52;;;;;;;1.20;1.00;;;25.10;99.90;;;;;;4955171;28;20216;-81
2023/07/29 10:01:18;;;;;;;1.77;1.20;;;25.70;99.90;;;;;;4960720;28;21158;-81
2023/07/29 10:03:48;;;;;;;2.17;1.10;;;25.70;99.90;;;;;;4956020;28;20216;-83
2023/07/29 10:06:15;;;;;;;1.63;1.10;;;25.10;99.90;;;;;;4959162;28;20536;-81
2023/07/29 10:08:43;;;;;;;1.00;0.90;;;25.10;99.90;;;;;;4960297;28;20192;-81
2023/07/29 10:11:11;;;;;;;1.30;1.20;;;24.40;99.90;;;;;;4959226;28;20327;-82
2023/07/29 10:13:37;;;;;;;3.55;1.50;;;23.80;99.90;;;;;;4942290;28;20225;-81
2023/07/29 10:16:04;;;;;;;2.28;1.15;;;23.10;99.90;;;;;;4960139;28;20223;-84
2023/07/29 10:18:31;;;;;;;2.95;1.17;;;22.70;99.90;;;;;;4961621;28;20611;-83
2023/07/29 10:20:59;;;;;;;2.25;0.90;;;22.80;99.90;;;;;;4940015;28;20200;-83
2023/07/29 10:23:26;;;;;;;2.33;1.08;;;22.60;99.90;;;;;;4957335;28;20340;-79
2023/07/29 10:26:10;;;;;;;1.35;0.77;;;22.50;99.90;;;;;;4961735;28;20303;-80
2023/07/29 10:28:46;;;;;;;1.23;0.85;;;23.00;99.90;;;;;;4962548;28;20302;-82
2023/07/29 10:31:12;;;;;;;4.45;1.45;;;23.20;99.90;;;;;;4958315;28;20693;-80
2023/07/29 10:33:39;;;;;;;1.40;0.90;;;23.90;99.90;;;;;;4956948;28;20237;-81
2023/07/29 10:36:05;;;;;;;1.08;0.95;;;24.80;99.90;;;;;;4957306;28;20220;-80
2023/07/29 10:38:31;;;;;;;4.88;1.05;;;25.60;99.90;;;;;;4941825;28;20682;-81
2023/07/29 10:40:59;;;;;;;3.08;1.10;;;25.60;99.90;;;;;;4955517;28;20236;-82
2023/07/29 10:43:35;;;;;;;2.10;1.00;;;24.90;99.90;;;;;;4955671;28;20328;-81
2023/07/29 10:46:19;;;;;;;2.88;0.90;;;24.80;99.90;;;;;;4958749;28;20243;-81
2023/07/29 10:48:50;;;;;;;3.35;1.73;;;24.40;99.90;;;;;;4960464;28;20213;-81
2023/07/29 10:51:37;;;;;;;3.90;0.98;;;23.60;99.90;;;;;;4955937;28;20729;-82
2023/07/29 10:54:10;;;;;;;1.20;1.10;;;24.10;99.90;;;;;;4958813;28;20227;-81
2023/07/29 10:56:37;;;;;;;1.15;0.95;;;24.50;99.90;;;;;;4962609;28;20216;-83
2023/07/29 10:59:31;;;;;;;2.10;1.40;;;23.70;99.90;;;;;;4960177;28;20333;-83
2023/07/29 11:01:58;;;;;;;3.70;1.15;;;22.40;99.90;;;;;;4939300;28;20219;-82
2023/07/29 11:04:32;;;;;;;1.13;0.95;;;21.60;99.90;;;;;;4941717;28;20842;-83
2023/07/29 11:07:04;;;;;;;2.78;0.90;;;21.40;99.90;;;;;;4959956;28;20262;-82
2023/07/29 11:09:51;;;;;;;1.75;1.10;;;21.10;99.90;;;;;;4954262;28;21020;-81
2023/07/29 11:12:50;;;;;;;0.93;0.73;;;20.90;99.90;;;;;;4939776;28;20196;-81
2023/07/29 11:15:22;;;;;;;1.30;0.63;;;21.00;99.90;;;;;;4959645;28;20208;-83
2023/07/29 11:18:01;;;;;;;0.68;0.68;;;21.20;99.90;;;;;;4962613;28;20654;-84
2023/07/29 11:20:29;;;;;;;1.60;1.23;;;21.20;99.90;;;;;;4956347;28;20220;-81
2023/07/29 11:22:57;;;;;;;3.35;1.13;;;21.30;99.90;;;;;;4958184;28;20243;-82
2023/07/29 11:25:26;;;;;;;1.02;0.80;;;21.40;99.90;;;;;;4958676;28;20249;-83
2023/07/29 11:27:54;;;;;;;8.25;1.50;;;21.50;99.90;;;;;;4957937;28;21074;-83
2023/07/29 11:30:20;;;;;;;5.82;1.40;;;21.00;99.90;;;;;;4955046;28;20345;-82
2023/07/29 11:32:46;;;;;;;2.22;1.15;;;20.90;99.90;;;;;;4958657;28;20197;-80
2023/07/29 11:35:17;;;;;;;1.55;1.45;;;20.90;99.90;;;;;;4961771;28;20326;-80
2023/07/29 11:37:48;;;;;;;2.03;0.93;;;21.70;99.90;;;;;;4965451;28;20319;-83
2023/07/29 11:40:16;;;;;;;3.38;1.30;;;22.50;99.90;;;;;;4963330;28;20220;-84
2023/07/29 11:42:41;;;;;;;3.70;1.27;;;22.90;99.90;;;;;;4948580;28;20244;-82
2023/07/29 11:45:08;;;;;;;1.00;0.70;;;23.20;99.90;;;;;;4948055;28;20279;-84
2023/07/29 11:47:37;;;;;;;2.08;1.05;;;23.00;99.90;;;;;;4961987;28;20309;-83
2023/07/29 11:50:09;;;;;;;7.70;1.27;;;22.60;99.90;;;;;;4946700;28;21124;-83
2023/07/29 11:52:35;;;;;;;1.20;1.10;;;22.80;99.90;;;;;;4946275;28;20232;-82
2023/07/29 11:55:03;;;;;;;1.33;0.70;;;22.80;99.90;;;;;;4944429;28;20236;-82
2023/07/29 11:57:35;;;;;;;1.15;0.93;;;22.90;99.90;;;;;;4961384;28;20192;-82
2023/07/29 12:00:06;;;;;;;1.95;0.77;;;23.30;99.90;;;;;;4963549;28;20272;-82
2023/07/29 12:02:33;;;;;;;4.30;1.23;;;23.00;99.90;;;;;;4962874;28;20312;-84
2023/07/29 12:04:59;;;;;;;2.55;1.23;;;23.00;99.90;;;;;;4946477;28;20220;-82
2023/07/29 12:07:25;;;;;;;1.42;1.02;;;23.20;99.90;;;;;;4962273;28;20243;-83
2023/07/29 12:09:52;;;;;;;2.05;1.00;;;23.10;99.90;;;;;;4962436;28;20667;-81
2023/07/29 12:12:18;;;;;;;2.15;1.05;;;22.70;99.90;;;;;;4960591;28;20753;-83
2023/07/29 12:14:46;;;;;;;1.73;1.05;;;22.50;99.90;;;;;;4945989;28;20211;-82
2023/07/29 12:17:12;;;;;;;2.25;1.00;;;22.30;99.90;;;;;;4946862;28;20225;-82
2023/07/29 12:19:40;;;;;;;1.05;0.90;;;22.40;99.90;;;;;;4944747;28;20221;-81
2023/07/29 12:22:08;;;;;;;0.95;0.85;;;22.40;99.90;;;;;;4961505;28;20378;-84
2023/07/29 12:24:36;;;;;;;2.40;0.95;;;22.40;99.90;;;;;;4956353;28;20306;-82
2023/07/29 12:27:02;;;;;;;3.20;1.25;;;22.60;99.90;;;;;;4959145;28;20200;-82
2023/07/29 12:29:28;;;;;;;1.38;1.27;;;22.50;99.90;;;;;;4959756;28;20224;-82
2023/07/29 12:32:02;;;;;;;2.08;0.73;;;22.60;99.90;;;;;;4945325;28;20690;-81
2023/07/29 12:34:29;;;;;;;1.67;1.13;;;22.60;99.90;;;;;;4959804;28;20279;-84
2023/07/29 12:36:57;;;;;;;3.05;1.00;;;22.50;99.90;;;;;;4963522;28;20263;-85
2023/07/29 12:39:28;;;;;;;2.63;1.17;;;22.60;99.90;;;;;;4961360;28;20267;-82
2023/07/29 12:41:56;;;;;;;2.55;1.10;;;22.50;99.90;;;;;;4956102;28;20601;-82
2023/07/29 12:44:35;;;;;;;5.93;1.95;;;22.40;99.90;;;;;;4959226;28;20769;-80
2023/07/29 12:47:03;;;;;;;2.38;1.10;;;22.20;99.90;;;;;;4961504;28;20223;-81